Cicero, Illinois
Current Conditions -  °F | °C
As of 5:53 AM on Monday 20 Oct 2014 (Local Time) from KMDW Reporting Station
Broken Clouds Broken Clouds  
Wind Chill: 51°   Ceiling: 11000
Heat Index: 51°   Visibility: 10mi
Dew Point: 45°   Wind: 7mph
Humidity: 80%   Direction: 230°SW
Pressure: 29.81"   Gusts: NA
Location:  41.84°N, 87.75°W
Report Text: KMDW 201053Z 23006KT 10SM BKN110 11/07 A2981 RMK AO2 SLP096 OCNL LTGIC DSNT N CB DSNT N T01060072
Loading
Personal Weather Stations






























Interactive Weather Map
Tropical Storm Tracking
New forecast layout! Learn more

10-Day Weather Forecast

Advertisements
Track Severe Weather on mobile